createdAt,value
2023-05-05T00:02:44.875Z,48.77
2023-05-05T00:05:55.341Z,48.89
2023-05-05T00:08:58.562Z,49.70
2023-05-05T00:12:01.484Z,50.04
2023-05-05T00:15:04.381Z,50.35
2023-05-05T00:18:07.641Z,50.65
2023-05-05T00:21:10.582Z,50.48
2023-05-05T00:24:13.447Z,50.22
2023-05-05T00:27:15.910Z,50.92
2023-05-05T00:30:18.478Z,50.86
2023-05-05T00:33:21.234Z,50.50
2023-05-05T00:36:23.803Z,50.69
2023-05-05T00:39:26.637Z,50.63
2023-05-05T00:42:39.710Z,50.75
2023-05-05T00:45:44.669Z,51.00
2023-05-05T00:48:47.222Z,51.21
2023-05-05T00:51:49.890Z,51.12
2023-05-05T00:54:52.528Z,50.82
2023-05-05T00:57:56.755Z,51.30
2023-05-05T01:00:59.461Z,51.40
2023-05-05T01:04:02.197Z,51.76
2023-05-05T01:07:36.225Z,51.67
2023-05-05T01:10:45.401Z,51.66
2023-05-05T01:13:57.184Z,51.53
2023-05-05T01:17:08.811Z,51.13
2023-05-05T01:20:27.697Z,51.54
2023-05-05T01:23:50.441Z,51.53
2023-05-05T01:27:17.194Z,52.32
2023-05-05T01:30:38.062Z,52.34
2023-05-05T01:33:47.905Z,52.66
2023-05-05T01:36:58.414Z,52.57
2023-05-05T01:40:06.149Z,52.22
2023-05-05T01:43:13.350Z,52.39
2023-05-05T01:46:17.956Z,51.82
2023-05-05T01:49:21.028Z,51.81
2023-05-05T01:52:27.077Z,51.50
2023-05-05T01:55:32.530Z,51.70
2023-05-05T01:58:37.325Z,51.78
2023-05-05T02:01:41.891Z,51.49
2023-05-05T02:04:45.807Z,52.04
2023-05-05T02:07:50.385Z,51.58
2023-05-05T02:10:54.272Z,52.03
2023-05-05T02:13:59.952Z,52.43
2023-05-05T02:17:04.368Z,52.84
2023-05-05T02:20:11.908Z,52.98
2023-05-05T02:23:14.588Z,52.88
2023-05-05T02:26:21.720Z,53.06
2023-05-05T02:29:31.728Z,52.95
2023-05-05T02:32:36.283Z,52.47
2023-05-05T02:35:40.147Z,52.35
2023-05-05T02:38:50.409Z,52.53
2023-05-05T02:41:55.433Z,53.28
2023-05-05T02:45:07.989Z,53.13
2023-05-05T02:48:13.210Z,52.89
2023-05-05T02:51:16.447Z,53.37
2023-05-05T02:54:19.573Z,53.87
2023-05-05T02:57:36.131Z,54.23
2023-05-05T03:00:43.015Z,54.50
2023-05-05T03:04:07.453Z,54.27
2023-05-05T03:07:21.977Z,54.26
2023-05-05T03:10:31.510Z,54.80
2023-05-05T03:13:40.627Z,55.15
2023-05-05T03:16:45.088Z,54.89
2023-05-05T03:19:48.558Z,54.74
2023-05-05T03:22:52.251Z,55.27
2023-05-05T03:25:54.887Z,55.12
2023-05-05T03:29:18.173Z,55.76
2023-05-05T03:32:23.687Z,55.82
2023-05-05T03:35:29.721Z,56.35
2023-05-05T03:38:32.919Z,56.34
2023-05-05T03:41:35.487Z,56.24
2023-05-05T03:44:39.356Z,56.78
2023-05-05T03:47:42.807Z,56.55
2023-05-05T03:50:45.874Z,56.94
2023-05-05T03:53:50.165Z,56.91
2023-05-05T03:56:53.039Z,57.08
2023-05-05T03:59:55.840Z,57.55
2023-05-05T04:02:58.493Z,57.49
2023-05-05T04:06:01.297Z,56.89
2023-05-05T04:09:06.211Z,57.12
2023-05-05T04:12:08.828Z,57.15
2023-05-05T04:15:11.796Z,57.03
2023-05-05T04:18:16.072Z,56.90
2023-05-05T04:21:19.017Z,57.07
2023-05-05T04:24:25.061Z,56.89
2023-05-05T04:27:30.416Z,56.90
2023-05-05T04:30:34.860Z,56.58
2023-05-05T04:33:37.849Z,56.76
2023-05-05T04:36:41.280Z,56.58
2023-05-05T04:39:44.533Z,56.49
2023-05-05T04:42:47.603Z,56.11
2023-05-05T04:45:54.241Z,56.41
2023-05-05T04:48:59.416Z,55.79
2023-05-05T04:52:02.404Z,55.52
2023-05-05T04:55:05.932Z,55.77
2023-05-05T04:58:09.219Z,54.99
2023-05-05T05:01:11.815Z,55.04
2023-05-05T05:04:18.591Z,54.48
2023-05-05T05:07:21.415Z,54.51
2023-05-05T05:10:24.203Z,54.79
2023-05-05T05:13:26.745Z,54.66
2023-05-05T05:16:29.347Z,54.38
2023-05-05T05:19:32.551Z,54.96
2023-05-05T05:22:38.325Z,54.75
2023-05-05T05:25:44.334Z,54.76
2023-05-05T05:28:48.932Z,54.24
2023-05-05T05:31:51.813Z,54.22
2023-05-05T05:34:54.370Z,54.62
2023-05-05T05:37:57.844Z,54.40
2023-05-05T05:41:05.498Z,53.68
2023-05-05T05:44:11.817Z,53.24
2023-05-05T05:47:14.582Z,52.64
2023-05-05T05:50:17.597Z,53.04
2023-05-05T05:53:20.729Z,51.63
2023-05-05T05:56:24.403Z,50.36
2023-05-05T05:59:27.465Z,50.49
2023-05-05T06:02:30.702Z,50.58
2023-05-05T06:05:33.709Z,50.10
2023-05-05T06:08:36.331Z,48.01
2023-05-05T06:11:38.869Z,47.63
2023-05-05T06:14:41.566Z,48.00
2023-05-05T06:17:44.372Z,47.96
2023-05-05T06:20:51.074Z,47.01
2023-05-05T06:23:55.656Z,46.39
2023-05-05T06:26:59.484Z,46.06
2023-05-05T06:30:02.074Z,45.96
2023-05-05T06:33:04.635Z,46.07
2023-05-05T06:36:07.340Z,45.87
2023-05-05T06:39:10.954Z,45.75
2023-05-05T06:42:13.740Z,45.69
2023-05-05T06:45:16.666Z,45.45
2023-05-05T06:48:19.193Z,44.50
2023-05-05T06:51:22.866Z,44.65
2023-05-05T06:54:25.822Z,44.47
2023-05-05T06:57:28.453Z,44.78
2023-05-05T07:00:31.038Z,43.76
2023-05-05T07:03:34.107Z,44.31
2023-05-05T07:06:36.726Z,44.69
2023-05-05T07:09:39.339Z,44.29
2023-05-05T07:12:42.398Z,44.01
2023-05-05T07:15:46.625Z,44.35
2023-05-05T07:18:49.280Z,43.99
2023-05-05T07:21:52.147Z,43.88
2023-05-05T07:24:54.913Z,44.16
2023-05-05T07:27:57.876Z,43.75
2023-05-05T07:31:00.555Z,43.97
